sensor_id;sensor_type;location;lat;lon;timestamp;P1;durP1;ratioP1;P2;durP2;ratioP2
50350;SDS011;36250;48.740;22.174;2023-07-20T06:49:29;5.77;;;4.73;;
50350;SDS011;36250;48.740;22.174;2023-07-20T06:51:54;6.80;;;5.47;;
50350;SDS011;36250;48.740;22.174;2023-07-20T06:54:20;5.57;;;4.70;;
50350;SDS011;36250;48.740;22.174;2023-07-20T06:56:45;5.72;;;4.50;;
50350;SDS011;36250;48.740;22.174;2023-07-20T06:59:11;5.50;;;4.63;;
50350;SDS011;36250;48.740;22.174;2023-07-20T07:01:36;6.88;;;4.28;;
50350;SDS011;36250;48.740;22.174;2023-07-20T07:04:01;5.63;;;4.80;;
50350;SDS011;36250;48.740;22.174;2023-07-20T07:06:27;4.63;;;4.22;;
50350;SDS011;36250;48.740;22.174;2023-07-20T07:08:53;4.25;;;3.85;;
50350;SDS011;36250;48.740;22.174;2023-07-20T07:11:18;7.45;;;4.10;;
50350;SDS011;36250;48.740;22.174;2023-07-20T07:13:45;4.72;;;4.20;;
50350;SDS011;36250;48.740;22.174;2023-07-20T07:16:12;4.72;;;3.88;;
50350;SDS011;36250;48.740;22.174;2023-07-20T07:18:39;7.60;;;4.35;;
50350;SDS011;36250;48.740;22.174;2023-07-20T07:21:05;5.03;;;3.83;;
50350;SDS011;36250;48.740;22.174;2023-07-20T07:23:30;4.72;;;4.05;;
50350;SDS011;36250;48.740;22.174;2023-07-20T07:25:55;5.20;;;4.05;;
50350;SDS011;36250;48.740;22.174;2023-07-20T07:28:21;5.63;;;3.90;;
50350;SDS011;36250;48.740;22.174;2023-07-20T07:30:46;5.75;;;4.32;;
50350;SDS011;36250;48.740;22.174;2023-07-20T07:33:12;4.47;;;3.95;;
50350;SDS011;36250;48.740;22.174;2023-07-20T07:35:37;4.15;;;3.75;;
50350;SDS011;36250;48.740;22.174;2023-07-20T07:38:03;6.30;;;4.53;;
50350;SDS011;36250;48.740;22.174;2023-07-20T07:40:29;7.00;;;4.07;;
50350;SDS011;36250;48.740;22.174;2023-07-20T07:42:54;5.97;;;4.57;;
50350;SDS011;36250;48.740;22.174;2023-07-20T07:45:19;5.88;;;4.43;;
50350;SDS011;36250;48.740;22.174;2023-07-20T07:47:44;5.30;;;4.60;;
50350;SDS011;36250;48.740;22.174;2023-07-20T07:50:10;5.63;;;4.72;;
50350;SDS011;36250;48.740;22.174;2023-07-20T07:52:35;6.20;;;4.43;;
50350;SDS011;36250;48.740;22.174;2023-07-20T07:55:01;8.30;;;4.63;;
50350;SDS011;36250;48.740;22.174;2023-07-20T07:57:26;8.05;;;4.75;;
50350;SDS011;36250;48.740;22.174;2023-07-20T07:59:52;5.10;;;4.55;;
50350;SDS011;36250;48.740;22.174;2023-07-20T08:02:17;5.78;;;4.40;;
50350;SDS011;36250;48.740;22.174;2023-07-20T08:04:42;7.15;;;4.20;;
50350;SDS011;36250;48.740;22.174;2023-07-20T08:07:08;5.90;;;4.10;;
50350;SDS011;36250;48.740;22.174;2023-07-20T08:09:33;4.90;;;4.32;;
50350;SDS011;36250;48.740;22.174;2023-07-20T08:11:58;6.57;;;4.60;;
50350;SDS011;36250;48.740;22.174;2023-07-20T08:14:24;5.80;;;4.63;;
50350;SDS011;36250;48.740;22.174;2023-07-20T08:16:50;5.68;;;4.60;;
50350;SDS011;36250;48.740;22.174;2023-07-20T08:19:15;4.00;;;3.67;;
50350;SDS011;36250;48.740;22.174;2023-07-20T08:21:40;3.97;;;3.65;;
50350;SDS011;36250;48.740;22.174;2023-07-20T08:24:06;4.20;;;3.40;;
50350;SDS011;36250;48.740;22.174;2023-07-20T08:26:32;8.20;;;3.47;;
50350;SDS011;36250;48.740;22.174;2023-07-20T08:28:58;3.88;;;3.47;;
50350;SDS011;36250;48.740;22.174;2023-07-20T08:31:23;3.78;;;3.25;;
50350;SDS011;36250;48.740;22.174;2023-07-20T08:33:48;4.05;;;2.92;;
50350;SDS011;36250;48.740;22.174;2023-07-20T08:36:14;4.35;;;3.15;;
50350;SDS011;36250;48.740;22.174;2023-07-20T08:38:39;3.50;;;3.20;;
50350;SDS011;36250;48.740;22.174;2023-07-20T08:41:04;4.60;;;3.00;;
50350;SDS011;36250;48.740;22.174;2023-07-20T08:43:30;4.72;;;3.30;;
50350;SDS011;36250;48.740;22.174;2023-07-20T08:45:58;3.88;;;3.53;;
50350;SDS011;36250;48.740;22.174;2023-07-20T08:48:24;5.47;;;4.05;;
50350;SDS011;36250;48.740;22.174;2023-07-20T08:50:50;6.18;;;3.92;;
50350;SDS011;36250;48.740;22.174;2023-07-20T08:53:17;4.20;;;3.80;;
50350;SDS011;36250;48.740;22.174;2023-07-20T08:55:46;4.43;;;4.03;;
50350;SDS011;36250;48.740;22.174;2023-07-20T08:58:14;4.00;;;3.60;;
50350;SDS011;36250;48.740;22.174;2023-07-20T09:00:41;4.30;;;4.00;;
50350;SDS011;36250;48.740;22.174;2023-07-20T09:03:07;6.45;;;3.65;;
50350;SDS011;36250;48.740;22.174;2023-07-20T09:05:33;4.72;;;3.63;;
50350;SDS011;36250;48.740;22.174;2023-07-20T09:08:00;4.55;;;3.38;;
50350;SDS011;36250;48.740;22.174;2023-07-20T09:10:26;5.05;;;4.57;;
50350;SDS011;36250;48.740;22.174;2023-07-20T09:12:51;5.13;;;3.30;;
50350;SDS011;36250;48.740;22.174;2023-07-20T09:15:16;4.55;;;3.75;;
50350;SDS011;36250;48.740;22.174;2023-07-20T09:17:46;5.80;;;4.05;;
50350;SDS011;36250;48.740;22.174;2023-07-20T09:20:12;3.67;;;3.35;;
50350;SDS011;36250;48.740;22.174;2023-07-20T09:22:40;3.85;;;3.55;;
50350;SDS011;36250;48.740;22.174;2023-07-20T09:25:10;3.60;;;3.30;;
50350;SDS011;36250;48.740;22.174;2023-07-20T09:27:43;3.65;;;3.30;;
50350;SDS011;36250;48.740;22.174;2023-07-20T09:30:10;5.47;;;3.47;;
50350;SDS011;36250;48.740;22.174;2023-07-20T09:32:48;3.30;;;3.10;;
50350;SDS011;36250;48.740;22.174;2023-07-20T09:35:19;6.47;;;3.60;;
50350;SDS011;36250;48.740;22.174;2023-07-20T09:37:55;4.28;;;3.20;;
50350;SDS011;36250;48.740;22.174;2023-07-20T09:40:24;3.53;;;3.28;;
50350;SDS011;36250;48.740;22.174;2023-07-20T09:42:51;3.63;;;3.22;;
50350;SDS011;36250;48.740;22.174;2023-07-20T09:45:18;3.40;;;3.10;;
50350;SDS011;36250;48.740;22.174;2023-07-20T09:47:43;5.65;;;3.40;;
50350;SDS011;36250;48.740;22.174;2023-07-20T09:50:09;3.25;;;2.95;;
50350;SDS011;36250;48.740;22.174;2023-07-20T09:52:37;3.80;;;3.05;;
50350;SDS011;36250;48.740;22.174;2023-07-20T09:55:06;3.10;;;2.90;;
50350;SDS011;36250;48.740;22.174;2023-07-20T09:57:33;3.42;;;3.05;;
50350;SDS011;36250;48.740;22.174;2023-07-20T09:59:58;2.90;;;2.60;;
50350;SDS011;36250;48.740;22.174;2023-07-20T10:02:30;2.58;;;2.33;;
50350;SDS011;36250;48.740;22.174;2023-07-20T10:04:58;6.90;;;2.42;;
50350;SDS011;36250;48.740;22.174;2023-07-20T10:07:27;2.65;;;2.45;;
50350;SDS011;36250;48.740;22.174;2023-07-20T10:09:55;2.60;;;2.40;;
50350;SDS011;36250;48.740;22.174;2023-07-20T10:12:24;3.15;;;2.35;;
50350;SDS011;36250;48.740;22.174;2023-07-20T10:14:52;3.08;;;2.60;;
50350;SDS011;36250;48.740;22.174;2023-07-20T10:17:35;2.88;;;2.67;;
50350;SDS011;36250;48.740;22.174;2023-07-20T10:20:05;2.60;;;2.40;;
50350;SDS011;36250;48.740;22.174;2023-07-20T10:22:34;2.40;;;2.20;;
50350;SDS011;36250;48.740;22.174;2023-07-20T10:25:01;2.35;;;2.15;;
50350;SDS011;36250;48.740;22.174;2023-07-20T10:27:26;2.28;;;2.15;;
50350;SDS011;36250;48.740;22.174;2023-07-20T10:29:53;4.30;;;2.08;;
50350;SDS011;36250;48.740;22.174;2023-07-20T10:32:20;2.90;;;2.38;;
50350;SDS011;36250;48.740;22.174;2023-07-20T10:34:52;4.70;;;3.00;;
50350;SDS011;36250;48.740;22.174;2023-07-20T10:48:23;6.32;;;2.55;;
50350;SDS011;36250;48.740;22.174;2023-07-20T10:51:08;3.67;;;2.95;;
50350;SDS011;36250;48.740;22.174;2023-07-20T10:53:41;2.88;;;2.67;;
50350;SDS011;36250;48.740;22.174;2023-07-20T10:56:19;2.88;;;2.67;;
50350;SDS011;36250;48.740;22.174;2023-07-20T10:58:45;2.67;;;2.47;;
50350;SDS011;36250;48.740;22.174;2023-07-20T11:01:14;5.30;;;2.83;;
50350;SDS011;36250;48.740;22.174;2023-07-20T11:03:42;2.90;;;2.70;;
50350;SDS011;36250;48.740;22.174;2023-07-20T11:08:48;2.90;;;2.60;;
50350;SDS011;36250;48.740;22.174;2023-07-20T11:11:32;3.77;;;2.73;;
50350;SDS011;36250;48.740;22.174;2023-07-20T11:21:29;3.97;;;3.30;;
50350;SDS011;36250;48.740;22.174;2023-07-20T11:24:02;3.75;;;3.30;;
50350;SDS011;36250;48.740;22.174;2023-07-20T11:26:28;4.60;;;3.40;;
50350;SDS011;36250;48.740;22.174;2023-07-20T11:28:53;4.60;;;3.20;;
50350;SDS011;36250;48.740;22.174;2023-07-20T11:31:19;8.20;;;3.70;;
50350;SDS011;36250;48.740;22.174;2023-07-20T11:33:44;4.40;;;3.60;;
50350;SDS011;36250;48.740;22.174;2023-07-20T11:36:10;3.85;;;3.40;;
50350;SDS011;36250;48.740;22.174;2023-07-20T11:38:36;4.20;;;3.80;;
50350;SDS011;36250;48.740;22.174;2023-07-20T11:41:04;4.80;;;3.90;;
50350;SDS011;36250;48.740;22.174;2023-07-20T11:43:30;10.77;;;4.03;;
50350;SDS011;36250;48.740;22.174;2023-07-20T11:45:55;6.03;;;4.00;;
50350;SDS011;36250;48.740;22.174;2023-07-20T11:48:21;7.05;;;3.90;;
50350;SDS011;36250;48.740;22.174;2023-07-20T11:50:46;5.18;;;4.68;;
50350;SDS011;36250;48.740;22.174;2023-07-20T11:53:12;4.45;;;3.33;;
50350;SDS011;36250;48.740;22.174;2023-07-20T11:55:38;5.07;;;4.03;;
50350;SDS011;36250;48.740;22.174;2023-07-20T11:58:06;6.03;;;4.28;;
50350;SDS011;36250;48.740;22.174;2023-07-20T12:00:33;5.97;;;4.35;;
50350;SDS011;36250;48.740;22.174;2023-07-20T12:02:59;3.92;;;3.53;;
50350;SDS011;36250;48.740;22.174;2023-07-20T12:05:25;4.50;;;4.10;;
50350;SDS011;36250;48.740;22.174;2023-07-20T12:07:51;5.72;;;4.10;;
50350;SDS011;36250;48.740;22.174;2023-07-20T12:10:22;5.53;;;3.70;;
50350;SDS011;36250;48.740;22.174;2023-07-20T12:12:49;4.25;;;3.85;;
50350;SDS011;36250;48.740;22.174;2023-07-20T12:15:24;4.72;;;4.25;;
50350;SDS011;36250;48.740;22.174;2023-07-20T12:17:52;6.65;;;3.95;;
50350;SDS011;36250;48.740;22.174;2023-07-20T12:20:25;8.55;;;4.05;;
50350;SDS011;36250;48.740;22.174;2023-07-20T12:22:50;4.82;;;4.03;;
50350;SDS011;36250;48.740;22.174;2023-07-20T12:25:16;4.20;;;3.80;;
50350;SDS011;36250;48.740;22.174;2023-07-20T12:27:44;5.05;;;4.50;;
50350;SDS011;36250;48.740;22.174;2023-07-20T12:30:09;5.75;;;4.05;;
50350;SDS011;36250;48.740;22.174;2023-07-20T12:32:35;4.53;;;4.13;;
50350;SDS011;36250;48.740;22.174;2023-07-20T12:35:00;4.85;;;4.18;;
50350;SDS011;36250;48.740;22.174;2023-07-20T12:37:26;4.95;;;3.55;;
50350;SDS011;36250;48.740;22.174;2023-07-20T12:39:52;5.07;;;3.78;;
50350;SDS011;36250;48.740;22.174;2023-07-20T12:42:18;3.47;;;3.17;;
50350;SDS011;36250;48.740;22.174;2023-07-20T12:44:43;5.10;;;3.40;;
50350;SDS011;36250;48.740;22.174;2023-07-20T12:47:08;6.93;;;4.18;;
50350;SDS011;36250;48.740;22.174;2023-07-20T12:49:34;4.32;;;3.78;;
50350;SDS011;36250;48.740;22.174;2023-07-20T12:51:59;4.25;;;3.90;;
50350;SDS011;36250;48.740;22.174;2023-07-20T12:54:25;4.75;;;3.80;;
50350;SDS011;36250;48.740;22.174;2023-07-20T12:56:50;4.88;;;3.95;;
50350;SDS011;36250;48.740;22.174;2023-07-20T12:59:15;4.90;;;4.18;;
50350;SDS011;36250;48.740;22.174;2023-07-20T13:01:41;4.37;;;3.97;;
50350;SDS011;36250;48.740;22.174;2023-07-20T13:04:06;4.63;;;3.97;;
50350;SDS011;36250;48.740;22.174;2023-07-20T13:06:35;4.20;;;3.83;;
50350;SDS011;36250;48.740;22.174;2023-07-20T13:09:00;4.95;;;4.32;;
50350;SDS011;36250;48.740;22.174;2023-07-20T13:11:26;6.20;;;3.90;;
50350;SDS011;36250;48.740;22.174;2023-07-20T13:13:51;4.43;;;4.03;;
50350;SDS011;36250;48.740;22.174;2023-07-20T13:33:17;6.80;;;3.80;;
50350;SDS011;36250;48.740;22.174;2023-07-20T13:35:42;5.10;;;3.90;;
50350;SDS011;36250;48.740;22.174;2023-07-20T13:38:08;5.40;;;3.70;;
50350;SDS011;36250;48.740;22.174;2023-07-20T13:40:33;5.43;;;4.70;;
50350;SDS011;36250;48.740;22.174;2023-07-20T13:42:58;4.20;;;3.80;;
50350;SDS011;36250;48.740;22.174;2023-07-20T13:45:24;4.20;;;3.90;;
50350;SDS011;36250;48.740;22.174;2023-07-20T13:47:49;4.40;;;3.90;;
50350;SDS011;36250;48.740;22.174;2023-07-20T13:50:14;5.03;;;3.72;;
50350;SDS011;36250;48.740;22.174;2023-07-20T13:52:40;5.97;;;3.78;;
50350;SDS011;36250;48.740;22.174;2023-07-20T13:55:05;4.80;;;3.97;;
50350;SDS011;36250;48.740;22.174;2023-07-20T13:57:31;7.10;;;3.60;;
50350;SDS011;36250;48.740;22.174;2023-07-20T13:59:57;4.10;;;3.70;;
